Time;durP1;ratioP1;P1;durP2;ratioP2;P2;SDS_P1;SDS_P2;PMS_P1;PMS_P2;Temp;Humidity;BMP_temperature;BMP_pressure;BME280_temperature;BME280_humidity;BME280_pressure;Samples;Min_cycle;Max_cycle;Signal;HPM_P1;HPM_P2
2021/07/31 00:00:11;;;;;;;5.15;3.53;;;22.20;99.90;;;;;;5069601;28;20242;-73
2021/07/31 00:02:37;;;;;;;4.78;3.75;;;22.20;99.90;;;;;;5069315;28;20227;-73
2021/07/31 00:05:05;;;;;;;4.20;3.30;;;22.20;99.90;;;;;;5069849;28;20324;-73
2021/07/31 00:07:31;;;;;;;5.47;3.60;;;22.20;99.90;;;;;;5068668;28;20231;-73
2021/07/31 00:09:59;;;;;;;3.70;3.40;;;22.20;99.90;;;;;;5069313;28;20270;-74
2021/07/31 00:12:26;;;;;;;5.32;3.90;;;22.20;99.90;;;;;;5069995;28;20207;-74
2021/07/31 00:14:53;;;;;;;3.83;3.53;;;22.20;99.90;;;;;;5069418;28;20261;-74
2021/07/31 00:17:19;;;;;;;3.55;3.35;;;22.20;99.90;;;;;;5069614;28;20212;-74
2021/07/31 00:19:46;;;;;;;5.82;3.30;;;22.20;99.90;;;;;;5069500;28;20293;-73
2021/07/31 00:22:13;;;;;;;3.60;3.40;;;22.20;99.90;;;;;;5069513;28;20746;-74
2021/07/31 00:24:39;;;;;;;4.43;4.00;;;22.20;99.90;;;;;;5069563;28;20203;-73
2021/07/31 00:27:07;;;;;;;3.65;3.35;;;22.20;99.90;;;;;;5069369;28;20227;-73
2021/07/31 00:29:34;;;;;;;3.92;3.20;;;22.20;99.90;;;;;;5069372;28;20208;-73
2021/07/31 00:32:00;;;;;;;4.38;3.83;;;22.20;99.90;;;;;;5069480;28;20207;-73
2021/07/31 00:34:27;;;;;;;4.10;3.80;;;22.20;99.90;;;;;;5069499;28;20261;-73
2021/07/31 00:36:53;;;;;;;4.65;3.85;;;22.20;99.90;;;;;;5068824;28;20225;-73
2021/07/31 00:39:20;;;;;;;4.05;3.60;;;22.10;99.90;;;;;;5069247;28;20234;-73
2021/07/31 00:41:47;;;;;;;4.20;3.83;;;22.10;99.90;;;;;;5069126;28;20238;-73
2021/07/31 00:44:15;;;;;;;3.60;3.40;;;22.10;99.90;;;;;;5069068;28;20231;-73
2021/07/31 00:46:41;;;;;;;5.25;3.92;;;22.10;99.90;;;;;;5068713;28;20304;-73
2021/07/31 00:49:08;;;;;;;3.72;3.40;;;22.10;99.90;;;;;;5069026;28;20272;-73
2021/07/31 00:51:35;;;;;;;3.67;3.38;;;22.10;99.90;;;;;;5069067;28;20249;-74
2021/07/31 00:54:02;;;;;;;3.83;3.25;;;22.00;99.90;;;;;;5068137;28;20231;-74
2021/07/31 00:56:29;;;;;;;5.15;3.53;;;22.00;99.90;;;;;;5068724;28;20737;-74
2021/07/31 00:58:56;;;;;;;5.05;3.28;;;22.00;99.90;;;;;;5068727;28;20207;-73
2021/07/31 01:01:24;;;;;;;4.05;3.47;;;22.00;99.90;;;;;;5068880;28;20280;-73
2021/07/31 01:03:50;;;;;;;4.85;3.65;;;22.00;99.90;;;;;;5068609;28;20246;-73
2021/07/31 01:06:17;;;;;;;4.93;3.70;;;22.00;99.90;;;;;;5068822;28;20215;-73
2021/07/31 01:08:44;;;;;;;4.50;3.63;;;22.00;99.90;;;;;;5068483;28;20242;-73
2021/07/31 01:11:10;;;;;;;4.65;4.03;;;22.00;99.90;;;;;;5068442;28;20231;-73
2021/07/31 01:13:37;;;;;;;5.85;3.78;;;22.00;99.90;;;;;;5067159;28;20233;-73
2021/07/31 01:16:06;;;;;;;4.00;3.47;;;22.00;99.90;;;;;;5048720;28;20212;-73
2021/07/31 01:18:34;;;;;;;8.38;3.95;;;22.00;99.90;;;;;;5048500;28;20208;-73
2021/07/31 01:21:01;;;;;;;4.50;3.70;;;22.10;99.90;;;;;;5048405;28;20556;-72
2021/07/31 01:23:29;;;;;;;4.85;4.20;;;22.10;99.90;;;;;;5048900;28;20219;-72
2021/07/31 01:25:56;;;;;;;4.90;4.45;;;22.10;99.90;;;;;;5048525;28;20285;-72
2021/07/31 01:28:23;;;;;;;6.00;4.00;;;22.10;99.90;;;;;;5048594;28;20243;-72
2021/07/31 01:30:50;;;;;;;4.38;3.97;;;22.10;99.90;;;;;;5048494;28;20216;-72
2021/07/31 01:33:17;;;;;;;4.63;3.80;;;22.10;99.90;;;;;;5048547;28;20239;-73
2021/07/31 01:35:43;;;;;;;7.95;4.00;;;22.10;99.90;;;;;;5048411;28;20653;-72
2021/07/31 01:38:10;;;;;;;3.97;3.58;;;22.10;99.90;;;;;;5048492;28;20293;-74
2021/07/31 01:40:38;;;;;;;5.47;4.10;;;22.10;99.90;;;;;;5048211;28;20224;-74
2021/07/31 01:43:04;;;;;;;4.72;3.55;;;22.10;99.90;;;;;;5048235;28;20254;-74
2021/07/31 01:45:31;;;;;;;4.32;3.95;;;22.10;99.90;;;;;;5048121;28;20273;-73
2021/07/31 01:47:57;;;;;;;5.25;3.83;;;22.00;99.90;;;;;;5047671;28;20278;-72
2021/07/31 01:50:24;;;;;;;5.85;3.90;;;22.00;99.90;;;;;;5047743;28;20231;-72
2021/07/31 01:52:50;;;;;;;4.20;3.50;;;21.90;99.90;;;;;;5048274;28;20282;-72
2021/07/31 01:55:17;;;;;;;5.43;3.80;;;21.90;99.90;;;;;;5048161;28;20239;-72
2021/07/31 01:57:45;;;;;;;4.97;3.90;;;21.60;99.90;;;;;;5047807;28;20243;-72
2021/07/31 02:00:12;;;;;;;5.10;3.80;;;21.40;99.90;;;;;;5047708;28;21096;-72
2021/07/31 02:02:39;;;;;;;6.03;4.13;;;21.10;99.90;;;;;;5047829;28;20591;-72
2021/07/31 02:05:06;;;;;;;4.20;3.53;;;20.90;99.90;;;;;;5048885;28;20255;-73
2021/07/31 02:07:33;;;;;;;4.20;3.70;;;20.70;99.90;;;;;;5051381;28;20705;-73
2021/07/31 02:09:59;;;;;;;3.60;3.17;;;20.60;99.90;;;;;;5051608;28;20244;-73
2021/07/31 02:12:26;;;;;;;6.17;3.60;;;20.60;99.90;;;;;;5052126;28;20202;-73
2021/07/31 02:14:54;;;;;;;3.80;3.50;;;20.50;99.90;;;;;;5051780;28;20293;-73
2021/07/31 02:17:20;;;;;;;3.70;3.40;;;20.40;99.90;;;;;;5051674;28;20550;-73
2021/07/31 02:19:47;;;;;;;5.33;3.57;;;20.30;99.90;;;;;;5051886;28;20392;-73
2021/07/31 02:22:14;;;;;;;4.13;3.73;;;20.30;99.90;;;;;;5051829;28;20289;-73
2021/07/31 02:24:40;;;;;;;3.90;3.60;;;20.20;99.90;;;;;;5051630;28;20201;-73
2021/07/31 02:27:08;;;;;;;4.80;3.50;;;20.20;99.90;;;;;;5051454;28;20260;-72
2021/07/31 02:29:35;;;;;;;6.63;3.30;;;20.20;99.90;;;;;;5051722;28;20212;-71
2021/07/31 02:32:03;;;;;;;5.27;3.53;;;20.20;99.90;;;;;;5051514;28;20254;-71
2021/07/31 02:34:30;;;;;;;3.50;3.30;;;20.20;99.90;;;;;;5051703;28;20258;-71
2021/07/31 02:36:57;;;;;;;3.40;3.20;;;20.20;99.90;;;;;;5051525;28;20204;-71
2021/07/31 02:39:23;;;;;;;4.73;3.73;;;20.20;99.90;;;;;;5051672;28;20228;-71
2021/07/31 02:41:50;;;;;;;4.73;3.13;;;20.10;99.90;;;;;;5051452;28;20267;-71
2021/07/31 02:44:16;;;;;;;3.37;3.07;;;20.20;99.90;;;;;;5051523;28;20236;-71
2021/07/31 02:46:43;;;;;;;4.90;3.30;;;20.20;99.90;;;;;;5051400;28;20627;-71
2021/07/31 02:49:11;;;;;;;3.20;2.90;;;20.20;99.90;;;;;;5051299;28;20266;-71
2021/07/31 02:51:37;;;;;;;4.47;3.07;;;20.20;99.90;;;;;;5051344;28;20231;-71
2021/07/31 02:54:04;;;;;;;3.43;3.07;;;20.10;99.90;;;;;;5051505;28;20231;-71
2021/07/31 02:56:30;;;;;;;3.33;2.63;;;20.00;99.90;;;;;;5051169;28;20239;-71
2021/07/31 02:58:57;;;;;;;4.13;2.97;;;20.00;99.90;;;;;;5051196;28;20267;-71
2021/07/31 03:01:24;;;;;;;3.70;2.80;;;20.00;99.90;;;;;;5051069;28;20285;-72
2021/07/31 03:03:50;;;;;;;3.20;2.80;;;20.00;99.90;;;;;;5050809;28;20224;-73
2021/07/31 03:06:18;;;;;;;3.17;2.57;;;19.90;99.90;;;;;;5050890;28;20235;-73
2021/07/31 03:08:45;;;;;;;4.17;3.00;;;19.90;99.90;;;;;;5050648;28;20603;-73
2021/07/31 03:11:11;;;;;;;3.17;2.53;;;19.90;99.90;;;;;;5050478;28;20240;-73
2021/07/31 03:13:38;;;;;;;5.70;2.50;;;19.90;99.90;;;;;;5050632;28;20244;-73
2021/07/31 03:16:06;;;;;;;2.80;2.50;;;19.90;99.90;;;;;;5049890;28;20630;-73
2021/07/31 03:18:33;;;;;;;4.03;2.70;;;19.90;99.90;;;;;;5050072;28;20211;-73
2021/07/31 03:21:00;;;;;;;5.43;2.80;;;19.90;99.90;;;;;;5050308;28;20216;-72
2021/07/31 03:23:27;;;;;;;4.80;2.53;;;19.80;99.90;;;;;;5050956;28;20233;-75
2021/07/31 03:25:58;;;;;;;3.20;2.60;;;19.90;99.90;;;;;;5050200;28;20666;-75
2021/07/31 03:28:25;;;;;;;2.77;2.57;;;19.90;99.90;;;;;;5050204;28;20840;-73
2021/07/31 03:30:52;;;;;;;6.13;2.70;;;19.90;99.90;;;;;;5050074;28;20600;-73
2021/07/31 03:33:19;;;;;;;2.73;2.23;;;19.90;99.90;;;;;;5050522;28;20204;-73
2021/07/31 03:35:46;;;;;;;2.90;2.70;;;19.80;99.90;;;;;;5050412;28;20208;-73
2021/07/31 03:38:13;;;;;;;3.23;3.00;;;19.70;99.90;;;;;;5050493;28;20239;-73
2021/07/31 03:40:40;;;;;;;2.50;2.30;;;19.70;99.90;;;;;;5050369;28;20263;-73
2021/07/31 03:43:07;;;;;;;2.70;2.50;;;19.60;99.90;;;;;;5050408;28;20231;-73
2021/07/31 03:45:34;;;;;;;2.53;2.30;;;19.70;99.90;;;;;;5050159;28;20675;-73
2021/07/31 03:48:00;;;;;;;2.97;2.60;;;19.70;99.90;;;;;;5049776;28;20271;-73
2021/07/31 03:50:27;;;;;;;2.63;2.50;;;19.80;99.90;;;;;;5049497;28;20792;-73
2021/07/31 03:52:54;;;;;;;3.20;2.20;;;19.60;99.90;;;;;;5050252;28;20208;-73
2021/07/31 03:55:21;;;;;;;2.90;2.70;;;19.40;99.90;;;;;;5050120;28;20701;-73
2021/07/31 03:57:48;;;;;;;2.60;2.40;;;19.40;99.90;;;;;;5050179;28;20248;-73
2021/07/31 04:00:16;;;;;;;2.57;2.37;;;19.20;99.90;;;;;;5049860;28;20200;-74
2021/07/31 04:02:42;;;;;;;3.00;1.93;;;19.30;99.90;;;;;;5050005;28;20247;-74
2021/07/31 04:05:10;;;;;;;2.73;2.50;;;19.20;99.90;;;;;;5050080;28;20255;-74
2021/07/31 04:07:36;;;;;;;2.50;2.27;;;19.20;99.90;;;;;;5049672;28;20643;-74
2021/07/31 04:10:04;;;;;;;2.43;1.93;;;19.20;99.90;;;;;;5049449;28;20289;-73
2021/07/31 04:12:30;;;;;;;3.43;2.17;;;19.10;99.90;;;;;;5050067;28;20244;-74
2021/07/31 04:14:58;;;;;;;2.13;1.90;;;19.20;99.90;;;;;;5049375;28;20674;-74
2021/07/31 04:17:25;;;;;;;2.27;2.07;;;19.30;99.90;;;;;;5049552;28;20265;-73
2021/07/31 04:19:52;;;;;;;2.10;1.90;;;19.30;99.90;;;;;;5049470;28;20301;-73
2021/07/31 04:22:18;;;;;;;3.33;1.87;;;19.30;99.90;;;;;;5049823;28;20578;-73
2021/07/31 04:24:45;;;;;;;2.23;2.03;;;19.20;99.90;;;;;;5049206;28;20678;-73
2021/07/31 04:27:11;;;;;;;2.20;2.00;;;19.00;99.90;;;;;;5049618;28;20208;-73
2021/07/31 04:29:38;;;;;;;2.03;1.83;;;18.90;99.90;;;;;;5049364;28;20228;-73
2021/07/31 04:32:07;;;;;;;3.30;1.80;;;19.10;99.90;;;;;;5049412;28;20208;-73
2021/07/31 04:34:33;;;;;;;2.00;1.90;;;19.00;99.90;;;;;;5049422;28;20262;-75
2021/07/31 04:37:00;;;;;;;2.87;2.00;;;18.90;99.90;;;;;;5049390;28;20273;-73
2021/07/31 04:39:26;;;;;;;2.03;1.93;;;18.80;99.90;;;;;;5048982;28;20711;-74
2021/07/31 04:41:53;;;;;;;3.00;1.90;;;18.90;99.90;;;;;;5049367;28;20235;-74
2021/07/31 04:44:20;;;;;;;3.63;1.80;;;19.00;99.90;;;;;;5049454;28;20265;-73
2021/07/31 04:46:46;;;;;;;2.03;1.90;;;19.00;99.90;;;;;;5049255;28;20236;-73
2021/07/31 04:49:16;;;;;;;2.10;1.87;;;18.90;99.90;;;;;;5049148;28;20232;-73
2021/07/31 04:51:42;;;;;;;3.20;1.80;;;19.00;99.90;;;;;;5049116;28;20312;-74
2021/07/31 04:54:09;;;;;;;1.80;1.70;;;19.00;99.90;;;;;;5049170;28;20208;-71
2021/07/31 04:56:36;;;;;;;3.13;1.63;;;19.00;99.90;;;;;;5049176;28;20256;-71
2021/07/31 04:59:02;;;;;;;1.97;1.70;;;19.10;99.90;;;;;;5048895;28;20240;-71
2021/07/31 05:01:29;;;;;;;3.07;1.83;;;19.10;99.90;;;;;;5048912;28;20228;-71
2021/07/31 05:03:56;;;;;;;1.50;1.40;;;19.20;99.90;;;;;;5048476;28;20282;-71
2021/07/31 05:06:24;;;;;;;1.67;1.57;;;19.20;99.90;;;;;;5048969;28;20340;-71
2021/07/31 05:08:50;;;;;;;2.27;1.33;;;19.30;99.90;;;;;;5048472;28;20294;-72
2021/07/31 05:11:18;;;;;;;1.70;1.53;;;19.20;99.90;;;;;;5048926;28;20239;-72
2021/07/31 05:13:45;;;;;;;1.50;1.40;;;19.20;99.90;;;;;;5049013;28;20204;-72
2021/07/31 05:16:14;;;;;;;1.80;1.70;;;19.20;99.90;;;;;;5048714;28;20208;-72
2021/07/31 05:18:41;;;;;;;1.50;1.40;;;19.30;99.90;;;;;;5048695;28;20261;-72
2021/07/31 05:21:08;;;;;;;2.40;1.70;;;19.30;99.90;;;;;;5048487;28;20274;-74
2021/07/31 05:23:36;;;;;;;2.57;2.07;;;19.20;99.90;;;;;;5048840;28;20231;-74
2021/07/31 05:26:03;;;;;;;3.00;1.67;;;19.20;99.90;;;;;;5048553;28;20239;-74
2021/07/31 05:28:30;;;;;;;2.40;1.70;;;19.20;99.90;;;;;;5048378;28;20595;-74
2021/07/31 05:30:56;;;;;;;2.43;1.80;;;19.20;99.90;;;;;;5048484;28;20269;-74
2021/07/31 05:33:23;;;;;;;1.50;1.40;;;19.20;99.90;;;;;;5048653;28;20207;-74
2021/07/31 05:35:49;;;;;;;1.87;1.77;;;19.20;99.90;;;;;;5048560;28;20323;-74
2021/07/31 05:38:16;;;;;;;2.23;1.60;;;19.20;99.90;;;;;;5048393;28;20240;-74
2021/07/31 05:40:44;;;;;;;2.43;1.50;;;19.30;99.90;;;;;;5052817;28;20208;-75
2021/07/31 05:43:11;;;;;;;2.17;1.63;;;19.30;99.90;;;;;;5054945;28;20235;-73
2021/07/31 05:45:37;;;;;;;2.67;1.67;;;19.40;99.90;;;;;;5055209;28;20236;-73
2021/07/31 05:48:04;;;;;;;1.70;1.60;;;19.40;99.90;;;;;;5054756;28;20211;-73
2021/07/31 05:50:31;;;;;;;1.77;1.60;;;19.50;99.90;;;;;;5054929;28;20235;-73
2021/07/31 05:52:58;;;;;;;1.47;1.37;;;19.40;99.90;;;;;;5054696;28;20254;-73
2021/07/31 05:55:24;;;;;;;2.33;2.07;;;19.50;99.90;;;;;;5055104;28;20207;-73
2021/07/31 05:57:52;;;;;;;2.37;1.70;;;19.60;99.90;;;;;;5054910;28;20453;-73
2021/07/31 06:00:19;;;;;;;1.90;1.30;;;19.50;99.90;;;;;;5054651;28;20767;-73
2021/07/31 06:02:48;;;;;;;1.90;1.80;;;19.60;99.90;;;;;;5054597;28;20208;-71
2021/07/31 06:05:15;;;;;;;1.83;1.50;;;19.60;99.90;;;;;;5054408;28;20655;-70
2021/07/31 06:07:42;;;;;;;3.67;1.73;;;19.70;99.90;;;;;;5054574;28;20305;-71
2021/07/31 06:10:09;;;;;;;3.80;3.00;;;19.70;99.90;;;;;;5054119;28;20325;-71
2021/07/31 06:12:36;;;;;;;3.37;1.40;;;19.80;99.90;;;;;;5054985;28;20223;-71
2021/07/31 06:15:05;;;;;;;2.23;1.60;;;19.80;99.90;;;;;;5054146;28;20614;-71
2021/07/31 06:17:32;;;;;;;1.90;1.47;;;19.80;99.90;;;;;;5056307;28;20212;-71
2021/07/31 06:19:59;;;;;;;2.07;1.40;;;19.80;99.90;;;;;;5074402;28;20611;-71
2021/07/31 06:22:25;;;;;;;1.73;1.50;;;19.90;99.90;;;;;;5071816;28;20207;-72
2021/07/31 06:24:52;;;;;;;1.83;1.53;;;19.90;99.90;;;;;;5074214;28;20686;-73
2021/07/31 06:27:19;;;;;;;2.17;1.53;;;20.00;99.90;;;;;;5074835;28;20242;-73
2021/07/31 06:29:45;;;;;;;3.90;1.43;;;20.00;99.90;;;;;;5074672;28;20258;-72
2021/07/31 06:32:13;;;;;;;1.50;1.07;;;20.10;99.90;;;;;;5058617;28;20215;-72
2021/07/31 06:34:40;;;;;;;2.40;1.17;;;20.10;99.90;;;;;;5053364;28;20239;-72
2021/07/31 06:37:06;;;;;;;1.90;1.13;;;20.10;99.70;;;;;;5072335;28;20206;-73
2021/07/31 06:39:33;;;;;;;1.60;0.93;;;20.10;99.90;;;;;;5072125;28;20650;-72
2021/07/31 06:42:02;;;;;;;1.87;1.27;;;20.20;99.70;;;;;;5072185;28;20207;-75
2021/07/31 06:44:29;;;;;;;1.67;1.17;;;20.20;99.70;;;;;;5072017;28;20257;-74
2021/07/31 06:46:55;;;;;;;1.77;1.17;;;20.30;99.80;;;;;;5072074;28;20346;-74
2021/07/31 06:49:23;;;;;;;1.37;1.20;;;20.20;98.90;;;;;;5071859;28;20722;-74
2021/07/31 06:51:51;;;;;;;1.57;1.23;;;20.20;99.00;;;;;;5070341;28;20611;-75
2021/07/31 06:54:18;;;;;;;2.50;1.63;;;20.30;99.40;;;;;;5069675;28;20227;-75
2021/07/31 06:56:44;;;;;;;2.30;1.10;;;20.40;99.30;;;;;;5069252;28;20756;-75
2021/07/31 06:59:11;;;;;;;6.23;1.37;;;20.40;99.80;;;;;;5068575;28;20713;-75
2021/07/31 07:01:38;;;;;;;2.20;1.43;;;20.40;98.80;;;;;;5068488;28;20261;-75
2021/07/31 07:04:04;;;;;;;3.43;1.30;;;20.40;98.70;;;;;;5068119;28;20215;-75
2021/07/31 07:06:32;;;;;;;4.43;1.40;;;20.40;98.80;;;;;;5070607;28;20241;-75
2021/07/31 07:08:59;;;;;;;2.03;1.13;;;20.50;99.00;;;;;;5070070;28;20301;-74
2021/07/31 07:11:25;;;;;;;3.10;1.40;;;20.50;98.60;;;;;;5070473;28;20183;-76
2021/07/31 07:13:52;;;;;;;2.23;1.23;;;20.60;99.10;;;;;;5071103;28;20208;-77
2021/07/31 07:16:19;;;;;;;1.93;1.07;;;20.70;98.40;;;;;;5078609;28;20225;-77
2021/07/31 07:18:45;;;;;;;3.20;1.03;;;20.70;98.20;;;;;;5079096;28;20273;-74
2021/07/31 07:21:12;;;;;;;3.03;1.20;;;20.70;98.20;;;;;;5070072;28;20207;-74
2021/07/31 07:23:40;;;;;;;1.63;1.30;;;20.80;98.20;;;;;;5070456;28;20200;-75
2021/07/31 07:26:12;;;;;;;3.53;1.17;;;20.80;98.40;;;;;;5070161;28;20210;-72
2021/07/31 07:28:39;;;;;;;2.60;1.27;;;20.80;98.40;;;;;;5070202;28;20235;-73
2021/07/31 07:31:06;;;;;;;3.10;2.00;;;20.90;98.80;;;;;;5069538;28;20661;-73
2021/07/31 07:33:33;;;;;;;1.63;1.40;;;20.90;98.60;;;;;;5048485;28;20219;-73
2021/07/31 07:36:00;;;;;;;1.20;1.10;;;21.00;98.10;;;;;;5048262;28;20220;-73
2021/07/31 07:38:26;;;;;;;2.07;1.40;;;21.00;98.50;;;;;;5048463;28;20289;-73
2021/07/31 07:40:54;;;;;;;1.50;1.40;;;21.10;98.30;;;;;;5057696;28;20678;-73
2021/07/31 07:43:21;;;;;;;2.33;1.10;;;21.10;98.20;;;;;;5064548;28;20618;-72
2021/07/31 07:45:47;;;;;;;1.47;1.27;;;21.10;97.90;;;;;;5067571;28;20207;-75
2021/07/31 07:48:14;;;;;;;1.67;1.30;;;21.30;98.30;;;;;;5067635;28;20265;-75
2021/07/31 07:50:40;;;;;;;1.27;1.07;;;21.20;97.20;;;;;;5068192;28;20331;-71
2021/07/31 07:53:07;;;;;;;4.27;1.63;;;21.20;98.00;;;;;;5068092;28;20285;-71
2021/07/31 07:55:34;;;;;;;1.93;1.77;;;21.40;97.40;;;;;;5067844;28;20705;-71
2021/07/31 07:58:01;;;;;;;4.07;1.90;;;21.40;96.90;;;;;;5068584;28;20266;-74
2021/07/31 08:00:28;;;;;;;1.73;1.30;;;21.40;96.50;;;;;;5068282;28;20228;-74
2021/07/31 08:02:55;;;;;;;3.10;1.07;;;21.40;96.00;;;;;;5065764;28;20250;-73
2021/07/31 08:05:21;;;;;;;1.10;1.00;;;21.40;96.40;;;;;;5069078;28;20250;-74
2021/07/31 08:07:48;;;;;;;1.00;1.00;;;21.50;96.20;;;;;;5069505;28;20199;-71
2021/07/31 08:10:14;;;;;;;3.63;1.20;;;21.60;96.30;;;;;;5068123;28;20258;-72
2021/07/31 08:12:41;;;;;;;0.83;0.80;;;21.60;95.00;;;;;;5068219;28;20654;-72
2021/07/31 08:15:10;;;;;;;0.93;0.93;;;21.50;94.90;;;;;;5068067;28;20239;-72
2021/07/31 08:17:37;;;;;;;1.07;0.97;;;21.40;95.00;;;;;;5068320;28;20735;-72
2021/07/31 08:20:05;;;;;;;1.47;0.97;;;21.40;94.90;;;;;;5069226;28;20295;-72
2021/07/31 08:22:32;;;;;;;3.87;1.17;;;21.50;94.70;;;;;;5069146;28;20836;-72
2021/07/31 08:24:59;;;;;;;1.93;1.13;;;21.70;94.60;;;;;;5069243;28;20211;-72
2021/07/31 08:27:25;;;;;;;2.10;0.90;;;21.80;94.60;;;;;;5068877;28;20785;-72
2021/07/31 08:29:52;;;;;;;1.87;1.00;;;21.70;94.40;;;;;;5069203;28;20479;-72
2021/07/31 08:32:20;;;;;;;1.30;1.20;;;21.80;95.00;;;;;;5069181;28;20345;-72
2021/07/31 08:34:46;;;;;;;2.83;1.27;;;21.80;95.10;;;;;;5069036;28;20253;-72
2021/07/31 08:37:13;;;;;;;0.80;0.80;;;21.90;95.10;;;;;;5068985;28;20642;-72
2021/07/31 08:39:39;;;;;;;2.70;1.30;;;21.80;94.20;;;;;;5068967;28;20227;-72
2021/07/31 08:42:06;;;;;;;2.72;1.00;;;21.70;94.40;;;;;;5068664;28;20234;-72
2021/07/31 08:44:34;;;;;;;2.43;1.27;;;21.90;94.90;;;;;;5068642;28;20669;-72
2021/07/31 08:47:03;;;;;;;2.77;0.87;;;21.90;95.10;;;;;;5068785;28;20207;-72
2021/07/31 08:49:33;;;;;;;3.17;1.17;;;21.80;94.60;;;;;;5068419;28;20223;-72
2021/07/31 08:52:01;;;;;;;1.73;1.13;;;21.70;94.90;;;;;;5068414;28;20218;-72
2021/07/31 08:54:28;;;;;;;2.87;2.67;;;21.80;95.40;;;;;;5068750;28;20231;-72
2021/07/31 08:56:55;;;;;;;3.00;1.40;;;21.90;95.00;;;;;;5068444;28;20731;-72
2021/07/31 08:59:25;;;;;;;2.40;1.23;;;21.90;95.30;;;;;;5068744;28;20297;-72
2021/07/31 09:01:51;;;;;;;2.93;2.40;;;22.00;95.30;;;;;;5068912;28;20204;-72
2021/07/31 09:04:19;;;;;;;2.07;0.97;;;22.10;94.80;;;;;;5068359;28;20702;-72
2021/07/31 09:06:47;;;;;;;2.53;1.20;;;22.10;94.90;;;;;;5068572;28;20203;-72
2021/07/31 09:09:14;;;;;;;4.80;1.20;;;22.20;95.20;;;;;;5068384;28;20288;-72
2021/07/31 09:11:59;;;;;;;3.83;1.30;;;22.30;94.80;;;;;;5068684;28;20196;-72
2021/07/31 09:14:26;;;;;;;4.77;1.63;;;22.20;94.90;;;;;;5067664;28;20607;-72
2021/07/31 09:16:53;;;;;;;1.87;1.30;;;22.10;95.00;;;;;;5068470;28;20211;-72
2021/07/31 09:19:21;;;;;;;2.43;1.30;;;21.90;95.20;;;;;;5068196;28;20226;-72
2021/07/31 09:21:50;;;;;;;1.50;1.13;;;21.70;95.40;;;;;;5068546;28;20205;-72
2021/07/31 09:24:19;;;;;;;2.70;1.23;;;21.60;95.40;;;;;;5067821;28;20665;-72
2021/07/31 09:26:48;;;;;;;2.03;1.50;;;21.60;95.60;;;;;;5068390;28;20207;-72
2021/07/31 09:29:16;;;;;;;2.93;1.43;;;21.80;95.30;;;;;;5068372;28;20770;-72
2021/07/31 09:31:50;;;;;;;2.40;1.37;;;21.90;95.70;;;;;;5068116;28;20267;-72
2021/07/31 09:34:29;;;;;;;4.47;4.00;;;21.90;95.00;;;;;;5068138;28;20230;-72
2021/07/31 09:37:11;;;;;;;4.10;3.70;;;22.00;95.30;;;;;;5068137;28;20199;-72
2021/07/31 09:39:56;;;;;;;1.60;1.23;;;21.90;95.30;;;;;;5067839;28;20234;-72
2021/07/31 09:42:30;;;;;;;2.03;1.23;;;22.00;95.60;;;;;;5067794;28;20245;-73
2021/07/31 09:44:58;;;;;;;2.77;1.43;;;21.90;94.80;;;;;;5068233;28;20550;-72
2021/07/31 09:47:25;;;;;;;3.47;1.50;;;21.80;95.40;;;;;;5067963;28;20234;-72
2021/07/31 09:49:53;;;;;;;4.23;1.50;;;21.90;95.30;;;;;;5068128;28;20655;-72
2021/07/31 09:52:22;;;;;;;1.77;1.37;;;21.90;94.80;;;;;;5068054;28;20207;-73
2021/07/31 09:54:49;;;;;;;1.70;1.20;;;22.00;94.20;;;;;;5067902;28;20208;-73
2021/07/31 09:57:16;;;;;;;4.37;1.20;;;22.00;94.40;;;;;;5067854;28;20254;-73
2021/07/31 09:59:46;;;;;;;2.47;1.40;;;22.10;94.20;;;;;;5067738;28;20215;-73
2021/07/31 10:02:17;;;;;;;1.20;1.10;;;22.10;94.40;;;;;;5066909;28;20288;-73
2021/07/31 10:04:45;;;;;;;2.97;1.35;;;22.20;94.40;;;;;;5067544;28;20239;-73
2021/07/31 10:07:13;;;;;;;5.18;1.40;;;22.20;94.30;;;;;;5067773;28;20235;-73
2021/07/31 10:09:45;;;;;;;2.30;1.37;;;22.20;94.10;;;;;;5067590;28;20342;-73
2021/07/31 10:12:14;;;;;;;3.20;1.33;;;22.20;94.20;;;;;;5067594;28;20673;-73
2021/07/31 10:14:41;;;;;;;2.78;1.30;;;22.10;94.00;;;;;;5067822;28;20208;-73
2021/07/31 10:17:07;;;;;;;1.10;1.00;;;22.10;94.50;;;;;;5067738;28;20243;-73
2021/07/31 10:19:42;;;;;;;4.87;1.30;;;22.00;94.10;;;;;;5067530;28;20844;-73
2021/07/31 10:22:10;;;;;;;1.47;1.20;;;21.90;94.00;;;;;;5067977;28;20280;-73
2021/07/31 10:25:06;;;;;;;2.83;1.10;;;22.00;94.20;;;;;;5067782;28;20211;-72
2021/07/31 10:27:35;;;;;;;4.47;1.40;;;21.90;94.10;;;;;;5070874;28;20227;-72
2021/07/31 10:30:04;;;;;;;3.73;1.10;;;21.70;94.20;;;;;;5071115;28;20223;-72
2021/07/31 10:32:40;;;;;;;2.77;1.20;;;21.70;94.50;;;;;;5071456;28;20250;-72
2021/07/31 10:35:33;;;;;;;1.77;1.23;;;21.60;95.10;;;;;;5071418;28;20192;-73
2021/07/31 10:38:00;;;;;;;2.07;1.10;;;21.60;94.90;;;;;;5071373;28;20304;-72
2021/07/31 10:40:59;;;;;;;6.83;1.57;;;21.60;94.80;;;;;;5071274;28;20257;-73
2021/07/31 10:43:27;;;;;;;1.40;1.20;;;21.60;94.80;;;;;;5071247;28;20297;-72
2021/07/31 10:46:20;;;;;;;1.13;0.93;;;21.60;95.00;;;;;;5071223;28;20298;-72
2021/07/31 10:48:47;;;;;;;1.37;1.20;;;21.70;95.20;;;;;;5070974;28;20808;-73
2021/07/31 10:51:39;;;;;;;3.80;1.10;;;21.90;94.50;;;;;;5070858;28;20286;-73
2021/07/31 10:54:05;;;;;;;3.87;0.97;;;22.00;94.10;;;;;;5071006;28;20215;-72
2021/07/31 10:56:58;;;;;;;2.22;1.13;;;22.30;94.70;;;;;;5071098;28;20242;-73
2021/07/31 10:59:25;;;;;;;3.25;1.50;;;22.70;94.20;;;;;;5070794;28;20266;-72
2021/07/31 11:02:38;;;;;;;0.80;0.75;;;22.90;93.00;;;;;;5070824;28;20269;-73
2021/07/31 11:05:05;;;;;;;2.28;1.00;;;23.00;93.50;;;;;;5023006;28;20203;-73
2021/07/31 11:08:04;;;;;;;1.15;1.05;;;22.90;93.20;;;;;;5070614;28;20814;-73
2021/07/31 11:10:39;;;;;;;1.17;1.02;;;23.00;93.30;;;;;;5070526;28;20255;-72
2021/07/31 11:13:07;;;;;;;3.17;1.40;;;23.00;92.70;;;;;;5070777;28;20195;-73
2021/07/31 11:15:34;;;;;;;1.48;1.00;;;22.80;92.90;;;;;;5070407;28;20211;-73
2021/07/31 11:18:02;;;;;;;2.10;0.75;;;22.60;93.00;;;;;;5070470;28;20250;-73
2021/07/31 11:20:32;;;;;;;1.77;1.00;;;22.50;93.70;;;;;;5070695;28;20287;-73
2021/07/31 11:23:03;;;;;;;3.97;1.02;;;22.60;94.20;;;;;;5070570;28;20214;-72
2021/07/31 11:25:30;;;;;;;4.90;1.00;;;23.00;93.50;;;;;;5070674;28;20195;-72
2021/07/31 11:27:58;;;;;;;5.18;1.30;;;23.00;93.30;;;;;;5070361;28;20284;-73
2021/07/31 11:30:41;;;;;;;4.07;1.15;;;22.90;93.00;;;;;;5070067;28;20301;-72
2021/07/31 11:33:16;;;;;;;1.20;1.03;;;22.80;93.40;;;;;;5070287;28;20234;-72
2021/07/31 11:35:43;;;;;;;1.57;1.20;;;22.80;92.50;;;;;;5070412;28;20265;-73
2021/07/31 11:38:32;;;;;;;3.15;0.77;;;22.70;92.60;;;;;;5069177;28;20266;-72
2021/07/31 11:41:00;;;;;;;1.10;0.90;;;23.00;93.40;;;;;;5069881;28;20657;-72
2021/07/31 11:43:26;;;;;;;2.13;0.80;;;23.20;93.10;;;;;;5070099;28;20227;-72
2021/07/31 11:45:55;;;;;;;0.77;0.77;;;23.10;92.50;;;;;;5069853;28;20249;-73
2021/07/31 11:48:23;;;;;;;2.80;1.13;;;23.10;92.90;;;;;;5069593;28;20247;-73
2021/07/31 11:51:03;;;;;;;2.13;1.00;;;23.10;93.20;;;;;;5069797;28;20242;-73
2021/07/31 11:53:30;;;;;;;3.22;0.90;;;23.30;92.70;;;;;;5070011;28;20203;-73
2021/07/31 11:56:13;;;;;;;1.95;0.85;;;23.60;92.30;;;;;;5070012;28;20203;-73
2021/07/31 11:58:42;;;;;;;2.08;0.70;;;23.80;91.70;;;;;;5069752;28;20208;-73
2021/07/31 12:01:10;;;;;;;4.43;1.40;;;23.60;91.30;;;;;;5069334;28;20692;-72
2021/07/31 12:03:48;;;;;;;2.30;0.90;;;23.70;91.30;;;;;;5069564;28;20251;-73
2021/07/31 12:06:45;;;;;;;1.92;1.17;;;23.50;91.10;;;;;;5069562;28;20238;-73
2021/07/31 12:09:26;;;;;;;2.90;0.98;;;23.20;91.50;;;;;;4987316;28;20289;-73
2021/07/31 12:11:54;;;;;;;3.53;0.70;;;23.00;91.60;;;;;;5057698;28;20250;-73
2021/07/31 12:14:41;;;;;;;2.53;0.90;;;22.80;91.80;;;;;;5070001;28;20211;-74
2021/07/31 12:17:23;;;;;;;1.87;1.00;;;22.70;91.70;;;;;;5069413;28;20241;-73
2021/07/31 12:19:52;;;;;;;4.07;1.30;;;22.70;91.40;;;;;;5068931;28;20286;-74
2021/07/31 12:22:20;;;;;;;3.42;0.80;;;23.10;91.50;;;;;;5069227;28;20207;-74
2021/07/31 12:25:10;;;;;;;1.38;0.77;;;23.40;91.40;;;;;;5069189;28;20238;-71
2021/07/31 12:27:57;;;;;;;1.52;0.90;;;23.80;90.90;;;;;;5069376;28;20188;-71
2021/07/31 12:30:28;;;;;;;1.17;1.10;;;24.10;90.20;;;;;;5068961;28;20757;-72
2021/07/31 12:32:58;;;;;;;3.33;0.77;;;24.00;90.40;;;;;;5068978;28;20200;-72
2021/07/31 12:35:34;;;;;;;3.35;1.10;;;23.90;90.60;;;;;;5069065;28;20242;-73
2021/07/31 12:38:00;;;;;;;3.63;1.08;;;23.80;90.40;;;;;;5068752;28;20231;-72
2021/07/31 12:40:27;;;;;;;2.95;2.00;;;24.10;90.10;;;;;;5068889;28;20277;-72
2021/07/31 12:42:53;;;;;;;1.10;1.00;;;24.30;89.50;;;;;;5068723;28;20689;-72
2021/07/31 12:45:20;;;;;;;4.22;1.05;;;24.40;88.60;;;;;;5069076;28;20662;-72
2021/07/31 12:47:47;;;;;;;2.10;0.80;;;24.40;88.30;;;;;;5068809;28;20207;-72
2021/07/31 12:50:15;;;;;;;3.10;1.30;;;24.30;88.60;;;;;;5068673;28;20204;-72
2021/07/31 12:52:41;;;;;;;1.52;0.70;;;24.00;88.60;;;;;;5068791;28;20214;-72
2021/07/31 12:55:09;;;;;;;1.00;0.90;;;23.80;89.20;;;;;;5068746;28;20211;-72